sensor_id;sensor_type;location;lat;lon;timestamp;P1;durP1;ratioP1;P2;durP2;ratioP2
5730;SDS011;2890;51.950;7.668;2023-11-19T00:01:55;11.03;;;10.17;;
5730;SDS011;2890;51.950;7.668;2023-11-19T00:04:24;10.43;;;9.80;;
5730;SDS011;2890;51.950;7.668;2023-11-19T00:06:50;10.93;;;10.13;;
5730;SDS011;2890;51.950;7.668;2023-11-19T00:09:16;10.10;;;9.50;;
5730;SDS011;2890;51.950;7.668;2023-11-19T00:11:43;9.90;;;9.20;;
5730;SDS011;2890;51.950;7.668;2023-11-19T00:14:09;10.17;;;9.50;;
5730;SDS011;2890;51.950;7.668;2023-11-19T00:16:36;10.50;;;9.60;;
5730;SDS011;2890;51.950;7.668;2023-11-19T00:19:02;10.40;;;9.70;;
5730;SDS011;2890;51.950;7.668;2023-11-19T00:21:30;11.30;;;10.40;;
5730;SDS011;2890;51.950;7.668;2023-11-19T00:23:58;9.90;;;9.30;;
5730;SDS011;2890;51.950;7.668;2023-11-19T00:26:24;10.13;;;9.43;;
5730;SDS011;2890;51.950;7.668;2023-11-19T00:28:50;9.60;;;9.00;;
5730;SDS011;2890;51.950;7.668;2023-11-19T00:31:17;10.17;;;9.47;;
5730;SDS011;2890;51.950;7.668;2023-11-19T00:33:44;9.40;;;8.70;;
5730;SDS011;2890;51.950;7.668;2023-11-19T00:36:11;13.93;;;9.30;;
5730;SDS011;2890;51.950;7.668;2023-11-19T00:38:39;9.90;;;9.20;;
5730;SDS011;2890;51.950;7.668;2023-11-19T00:41:05;10.80;;;10.00;;
5730;SDS011;2890;51.950;7.668;2023-11-19T00:43:32;11.37;;;10.57;;
5730;SDS011;2890;51.950;7.668;2023-11-19T00:45:58;12.80;;;11.70;;
5730;SDS011;2890;51.950;7.668;2023-11-19T00:48:24;12.73;;;11.33;;
5730;SDS011;2890;51.950;7.668;2023-11-19T00:50:51;13.30;;;12.10;;
5730;SDS011;2890;51.950;7.668;2023-11-19T00:53:18;15.90;;;14.20;;
5730;SDS011;2890;51.950;7.668;2023-11-19T00:55:45;15.43;;;14.03;;
5730;SDS011;2890;51.950;7.668;2023-11-19T00:58:12;16.00;;;14.40;;
5730;SDS011;2890;51.950;7.668;2023-11-19T01:00:38;16.60;;;15.10;;
5730;SDS011;2890;51.950;7.668;2023-11-19T01:03:05;17.97;;;16.27;;
5730;SDS011;2890;51.950;7.668;2023-11-19T01:05:32;20.63;;;17.80;;
5730;SDS011;2890;51.950;7.668;2023-11-19T01:07:58;18.80;;;17.00;;
5730;SDS011;2890;51.950;7.668;2023-11-19T01:10:25;34.30;;;17.47;;
5730;SDS011;2890;51.950;7.668;2023-11-19T01:12:52;18.87;;;17.03;;
5730;SDS011;2890;51.950;7.668;2023-11-19T01:15:19;20.13;;;18.00;;
5730;SDS011;2890;51.950;7.668;2023-11-19T01:17:45;20.70;;;18.60;;
5730;SDS011;2890;51.950;7.668;2023-11-19T01:20:11;19.27;;;17.30;;
5730;SDS011;2890;51.950;7.668;2023-11-19T01:22:38;22.43;;;17.77;;
5730;SDS011;2890;51.950;7.668;2023-11-19T01:25:05;20.00;;;16.87;;
5730;SDS011;2890;51.950;7.668;2023-11-19T01:27:32;17.43;;;15.73;;
5730;SDS011;2890;51.950;7.668;2023-11-19T01:30:01;18.80;;;16.80;;
5730;SDS011;2890;51.950;7.668;2023-11-19T01:32:30;22.33;;;18.30;;
5730;SDS011;2890;51.950;7.668;2023-11-19T01:34:56;19.33;;;16.67;;
5730;SDS011;2890;51.950;7.668;2023-11-19T01:37:23;19.27;;;17.27;;
5730;SDS011;2890;51.950;7.668;2023-11-19T01:39:49;19.97;;;16.90;;
5730;SDS011;2890;51.950;7.668;2023-11-19T01:42:15;22.03;;;17.70;;
5730;SDS011;2890;51.950;7.668;2023-11-19T01:44:42;23.00;;;19.30;;
5730;SDS011;2890;51.950;7.668;2023-11-19T01:47:09;23.10;;;19.20;;
5730;SDS011;2890;51.950;7.668;2023-11-19T01:49:36;18.73;;;16.83;;
5730;SDS011;2890;51.950;7.668;2023-11-19T01:52:02;22.30;;;18.60;;
5730;SDS011;2890;51.950;7.668;2023-11-19T01:54:29;25.00;;;18.90;;
5730;SDS011;2890;51.950;7.668;2023-11-19T01:56:55;24.00;;;20.37;;
5730;SDS011;2890;51.950;7.668;2023-11-19T01:59:23;22.90;;;19.60;;
5730;SDS011;2890;51.950;7.668;2023-11-19T02:01:51;28.37;;;21.77;;
5730;SDS011;2890;51.950;7.668;2023-11-19T02:04:20;27.77;;;22.47;;
5730;SDS011;2890;51.950;7.668;2023-11-19T02:06:49;29.83;;;24.07;;
5730;SDS011;2890;51.950;7.668;2023-11-19T02:09:17;33.57;;;26.37;;
5730;SDS011;2890;51.950;7.668;2023-11-19T02:11:44;33.47;;;25.20;;
5730;SDS011;2890;51.950;7.668;2023-11-19T02:14:14;32.20;;;26.90;;
5730;SDS011;2890;51.950;7.668;2023-11-19T02:16:40;33.83;;;26.30;;
5730;SDS011;2890;51.950;7.668;2023-11-19T02:19:07;36.03;;;27.60;;
5730;SDS011;2890;51.950;7.668;2023-11-19T02:21:36;33.37;;;27.90;;
5730;SDS011;2890;51.950;7.668;2023-11-19T02:24:03;35.67;;;25.83;;
5730;SDS011;2890;51.950;7.668;2023-11-19T02:26:33;38.40;;;28.50;;
5730;SDS011;2890;51.950;7.668;2023-11-19T02:29:05;34.73;;;27.20;;
5730;SDS011;2890;51.950;7.668;2023-11-19T02:31:31;34.70;;;27.40;;
5730;SDS011;2890;51.950;7.668;2023-11-19T02:33:59;32.13;;;26.23;;
5730;SDS011;2890;51.950;7.668;2023-11-19T02:36:27;33.40;;;26.20;;
5730;SDS011;2890;51.950;7.668;2023-11-19T02:38:53;34.27;;;27.87;;
5730;SDS011;2890;51.950;7.668;2023-11-19T02:41:20;38.40;;;28.67;;
5730;SDS011;2890;51.950;7.668;2023-11-19T02:43:46;35.13;;;26.40;;
5730;SDS011;2890;51.950;7.668;2023-11-19T02:46:15;35.70;;;25.00;;
5730;SDS011;2890;51.950;7.668;2023-11-19T02:48:42;35.70;;;24.90;;
5730;SDS011;2890;51.950;7.668;2023-11-19T02:51:09;27.93;;;22.63;;
5730;SDS011;2890;51.950;7.668;2023-11-19T02:53:36;35.00;;;21.53;;
5730;SDS011;2890;51.950;7.668;2023-11-19T02:56:04;27.63;;;21.90;;
5730;SDS011;2890;51.950;7.668;2023-11-19T02:58:40;33.27;;;21.83;;
5730;SDS011;2890;51.950;7.668;2023-11-19T03:01:07;24.20;;;20.43;;
5730;SDS011;2890;51.950;7.668;2023-11-19T03:03:45;21.33;;;18.90;;
5730;SDS011;2890;51.950;7.668;2023-11-19T03:06:14;28.10;;;18.20;;
5730;SDS011;2890;51.950;7.668;2023-11-19T03:08:41;32.13;;;17.20;;
5730;SDS011;2890;51.950;7.668;2023-11-19T03:11:07;34.50;;;16.40;;
5730;SDS011;2890;51.950;7.668;2023-11-19T03:13:34;22.47;;;15.60;;
5730;SDS011;2890;51.950;7.668;2023-11-19T03:16:00;21.67;;;13.90;;
5730;SDS011;2890;51.950;7.668;2023-11-19T03:18:26;15.87;;;13.23;;
5730;SDS011;2890;51.950;7.668;2023-11-19T03:20:54;18.20;;;13.10;;
5730;SDS011;2890;51.950;7.668;2023-11-19T03:23:21;15.43;;;12.37;;
5730;SDS011;2890;51.950;7.668;2023-11-19T03:25:48;17.47;;;10.30;;
5730;SDS011;2890;51.950;7.668;2023-11-19T03:28:14;12.97;;;9.80;;
5730;SDS011;2890;51.950;7.668;2023-11-19T03:30:40;18.63;;;9.63;;
5730;SDS011;2890;51.950;7.668;2023-11-19T03:33:07;16.07;;;9.53;;
5730;SDS011;2890;51.950;7.668;2023-11-19T03:35:33;14.87;;;8.50;;
5730;SDS011;2890;51.950;7.668;2023-11-19T03:38:01;21.60;;;8.60;;
5730;SDS011;2890;51.950;7.668;2023-11-19T03:40:27;19.73;;;7.83;;
5730;SDS011;2890;51.950;7.668;2023-11-19T03:42:55;11.50;;;7.13;;
5730;SDS011;2890;51.950;7.668;2023-11-19T03:45:21;20.83;;;7.80;;
5730;SDS011;2890;51.950;7.668;2023-11-19T03:47:48;14.73;;;6.80;;
5730;SDS011;2890;51.950;7.668;2023-11-19T03:50:15;21.40;;;8.23;;
5730;SDS011;2890;51.950;7.668;2023-11-19T03:52:41;22.47;;;7.47;;
5730;SDS011;2890;51.950;7.668;2023-11-19T03:55:09;15.53;;;7.43;;
5730;SDS011;2890;51.950;7.668;2023-11-19T03:57:37;13.40;;;7.63;;
5730;SDS011;2890;51.950;7.668;2023-11-19T04:00:04;20.97;;;7.10;;
5730;SDS011;2890;51.950;7.668;2023-11-19T04:02:33;14.73;;;7.10;;
5730;SDS011;2890;51.950;7.668;2023-11-19T04:05:00;14.30;;;6.30;;
5730;SDS011;2890;51.950;7.668;2023-11-19T04:07:26;17.47;;;6.40;;
5730;SDS011;2890;51.950;7.668;2023-11-19T04:09:52;21.37;;;7.97;;
5730;SDS011;2890;51.950;7.668;2023-11-19T04:12:20;23.00;;;6.10;;
5730;SDS011;2890;51.950;7.668;2023-11-19T04:14:47;14.17;;;6.20;;
5730;SDS011;2890;51.950;7.668;2023-11-19T04:17:13;16.53;;;5.60;;
5730;SDS011;2890;51.950;7.668;2023-11-19T04:19:39;24.20;;;6.73;;
5730;SDS011;2890;51.950;7.668;2023-11-19T04:22:06;21.77;;;5.97;;
5730;SDS011;2890;51.950;7.668;2023-11-19T04:24:33;20.37;;;6.03;;
5730;SDS011;2890;51.950;7.668;2023-11-19T04:26:59;22.80;;;5.53;;
5730;SDS011;2890;51.950;7.668;2023-11-19T04:29:26;21.37;;;5.50;;
5730;SDS011;2890;51.950;7.668;2023-11-19T04:31:53;17.57;;;5.13;;
5730;SDS011;2890;51.950;7.668;2023-11-19T04:34:19;23.93;;;6.00;;
5730;SDS011;2890;51.950;7.668;2023-11-19T04:36:45;28.53;;;6.10;;
5730;SDS011;2890;51.950;7.668;2023-11-19T04:39:12;22.20;;;6.40;;
5730;SDS011;2890;51.950;7.668;2023-11-19T04:41:47;23.57;;;5.33;;
5730;SDS011;2890;51.950;7.668;2023-11-19T04:44:13;25.00;;;6.57;;
5730;SDS011;2890;51.950;7.668;2023-11-19T04:46:42;15.93;;;5.07;;
5730;SDS011;2890;51.950;7.668;2023-11-19T04:49:09;13.97;;;5.60;;
5730;SDS011;2890;51.950;7.668;2023-11-19T04:51:37;20.57;;;5.70;;
5730;SDS011;2890;51.950;7.668;2023-11-19T04:54:04;23.80;;;6.10;;
5730;SDS011;2890;51.950;7.668;2023-11-19T04:56:31;14.60;;;5.30;;
5730;SDS011;2890;51.950;7.668;2023-11-19T04:58:58;19.93;;;5.90;;
5730;SDS011;2890;51.950;7.668;2023-11-19T05:01:24;23.63;;;5.57;;
5730;SDS011;2890;51.950;7.668;2023-11-19T05:03:52;14.20;;;5.67;;
5730;SDS011;2890;51.950;7.668;2023-11-19T05:06:18;19.57;;;5.80;;
5730;SDS011;2890;51.950;7.668;2023-11-19T05:08:44;16.27;;;5.80;;
5730;SDS011;2890;51.950;7.668;2023-11-19T05:11:11;32.00;;;6.73;;
5730;SDS011;2890;51.950;7.668;2023-11-19T05:13:42;20.47;;;6.50;;
5730;SDS011;2890;51.950;7.668;2023-11-19T05:16:10;25.37;;;6.43;;
5730;SDS011;2890;51.950;7.668;2023-11-19T05:18:39;22.93;;;5.70;;
5730;SDS011;2890;51.950;7.668;2023-11-19T05:21:06;23.40;;;5.87;;
5730;SDS011;2890;51.950;7.668;2023-11-19T05:23:33;24.57;;;7.57;;
5730;SDS011;2890;51.950;7.668;2023-11-19T05:26:00;21.27;;;6.67;;
5730;SDS011;2890;51.950;7.668;2023-11-19T05:28:26;38.37;;;7.20;;
5730;SDS011;2890;51.950;7.668;2023-11-19T05:30:52;22.57;;;5.70;;
5730;SDS011;2890;51.950;7.668;2023-11-19T05:33:19;32.90;;;7.10;;
5730;SDS011;2890;51.950;7.668;2023-11-19T05:35:45;34.40;;;7.73;;
5730;SDS011;2890;51.950;7.668;2023-11-19T05:38:13;16.70;;;5.80;;
5730;SDS011;2890;51.950;7.668;2023-11-19T05:40:39;29.47;;;6.63;;
5730;SDS011;2890;51.950;7.668;2023-11-19T05:43:05;33.87;;;7.83;;
5730;SDS011;2890;51.950;7.668;2023-11-19T05:45:32;19.77;;;6.90;;
5730;SDS011;2890;51.950;7.668;2023-11-19T05:47:58;30.03;;;7.93;;
5730;SDS011;2890;51.950;7.668;2023-11-19T05:50:25;33.10;;;8.63;;
5730;SDS011;2890;51.950;7.668;2023-11-19T05:52:51;31.00;;;7.43;;
5730;SDS011;2890;51.950;7.668;2023-11-19T05:55:20;33.97;;;7.40;;
5730;SDS011;2890;51.950;7.668;2023-11-19T05:57:48;25.27;;;7.40;;
5730;SDS011;2890;51.950;7.668;2023-11-19T06:00:17;23.10;;;6.97;;
5730;SDS011;2890;51.950;7.668;2023-11-19T06:02:43;31.27;;;7.50;;
5730;SDS011;2890;51.950;7.668;2023-11-19T06:05:09;33.30;;;8.00;;
5730;SDS011;2890;51.950;7.668;2023-11-19T06:07:36;32.50;;;6.90;;
5730;SDS011;2890;51.950;7.668;2023-11-19T06:10:04;29.87;;;7.80;;
5730;SDS011;2890;51.950;7.668;2023-11-19T06:12:33;32.47;;;7.20;;
5730;SDS011;2890;51.950;7.668;2023-11-19T06:15:05;25.93;;;7.43;;
5730;SDS011;2890;51.950;7.668;2023-11-19T06:17:31;31.53;;;7.33;;
5730;SDS011;2890;51.950;7.668;2023-11-19T06:19:57;33.17;;;7.40;;
5730;SDS011;2890;51.950;7.668;2023-11-19T06:22:24;32.37;;;6.90;;
5730;SDS011;2890;51.950;7.668;2023-11-19T06:24:50;27.37;;;6.13;;
5730;SDS011;2890;51.950;7.668;2023-11-19T06:27:16;34.50;;;7.80;;
5730;SDS011;2890;51.950;7.668;2023-11-19T06:29:44;31.53;;;6.63;;
5730;SDS011;2890;51.950;7.668;2023-11-19T06:32:10;31.33;;;6.80;;
5730;SDS011;2890;51.950;7.668;2023-11-19T06:34:37;30.13;;;6.33;;
5730;SDS011;2890;51.950;7.668;2023-11-19T06:37:03;32.93;;;7.07;;
5730;SDS011;2890;51.950;7.668;2023-11-19T06:39:29;30.07;;;6.20;;
5730;SDS011;2890;51.950;7.668;2023-11-19T06:41:56;26.73;;;6.20;;
5730;SDS011;2890;51.950;7.668;2023-11-19T06:44:22;32.43;;;6.67;;
5730;SDS011;2890;51.950;7.668;2023-11-19T06:46:51;30.47;;;7.10;;
5730;SDS011;2890;51.950;7.668;2023-11-19T06:49:18;32.53;;;7.10;;
5730;SDS011;2890;51.950;7.668;2023-11-19T06:51:45;27.50;;;5.87;;
5730;SDS011;2890;51.950;7.668;2023-11-19T06:54:11;34.57;;;6.17;;
5730;SDS011;2890;51.950;7.668;2023-11-19T06:56:37;28.00;;;6.40;;
5730;SDS011;2890;51.950;7.668;2023-11-19T06:59:04;33.60;;;7.37;;
5730;SDS011;2890;51.950;7.668;2023-11-19T07:01:34;28.60;;;6.00;;
5730;SDS011;2890;51.950;7.668;2023-11-19T07:04:01;37.77;;;6.60;;
5730;SDS011;2890;51.950;7.668;2023-11-19T07:06:33;30.73;;;6.53;;
5730;SDS011;2890;51.950;7.668;2023-11-19T07:08:59;37.17;;;6.87;;
5730;SDS011;2890;51.950;7.668;2023-11-19T07:11:27;35.93;;;6.30;;
5730;SDS011;2890;51.950;7.668;2023-11-19T07:13:54;31.77;;;5.40;;
5730;SDS011;2890;51.950;7.668;2023-11-19T07:16:20;43.53;;;6.40;;
5730;SDS011;2890;51.950;7.668;2023-11-19T07:18:47;28.60;;;6.90;;
5730;SDS011;2890;51.950;7.668;2023-11-19T07:21:16;32.40;;;8.00;;
5730;SDS011;2890;51.950;7.668;2023-11-19T07:23:42;32.27;;;6.50;;
5730;SDS011;2890;51.950;7.668;2023-11-19T07:26:09;33.33;;;6.80;;
5730;SDS011;2890;51.950;7.668;2023-11-19T07:28:36;43.30;;;6.60;;
5730;SDS011;2890;51.950;7.668;2023-11-19T07:31:02;28.20;;;7.10;;
5730;SDS011;2890;51.950;7.668;2023-11-19T07:33:29;29.60;;;6.47;;
5730;SDS011;2890;51.950;7.668;2023-11-19T07:35:55;44.10;;;6.77;;
5730;SDS011;2890;51.950;7.668;2023-11-19T07:38:23;29.40;;;6.93;;
5730;SDS011;2890;51.950;7.668;2023-11-19T07:40:49;33.27;;;6.87;;
5730;SDS011;2890;51.950;7.668;2023-11-19T07:43:16;33.17;;;7.63;;
5730;SDS011;2890;51.950;7.668;2023-11-19T07:45:42;37.67;;;7.37;;
5730;SDS011;2890;51.950;7.668;2023-11-19T07:48:10;37.43;;;7.03;;
5730;SDS011;2890;51.950;7.668;2023-11-19T07:50:38;51.60;;;7.87;;
5730;SDS011;2890;51.950;7.668;2023-11-19T07:53:05;33.53;;;7.27;;
5730;SDS011;2890;51.950;7.668;2023-11-19T07:55:33;30.27;;;7.13;;
5730;SDS011;2890;51.950;7.668;2023-11-19T07:58:00;43.53;;;7.13;;
5730;SDS011;2890;51.950;7.668;2023-11-19T08:00:26;30.43;;;7.43;;
5730;SDS011;2890;51.950;7.668;2023-11-19T08:02:52;38.37;;;7.37;;
5730;SDS011;2890;51.950;7.668;2023-11-19T08:05:19;33.97;;;7.50;;
5730;SDS011;2890;51.950;7.668;2023-11-19T08:07:45;34.80;;;6.83;;
5730;SDS011;2890;51.950;7.668;2023-11-19T08:10:11;33.37;;;7.30;;
5730;SDS011;2890;51.950;7.668;2023-11-19T08:12:39;43.47;;;7.50;;
5730;SDS011;2890;51.950;7.668;2023-11-19T08:15:05;32.13;;;6.50;;
5730;SDS011;2890;51.950;7.668;2023-11-19T08:17:32;37.13;;;7.07;;
5730;SDS011;2890;51.950;7.668;2023-11-19T08:19:58;36.83;;;6.80;;
5730;SDS011;2890;51.950;7.668;2023-11-19T08:22:25;37.07;;;7.53;;
5730;SDS011;2890;51.950;7.668;2023-11-19T08:24:51;34.37;;;6.77;;
5730;SDS011;2890;51.950;7.668;2023-11-19T08:27:18;30.90;;;6.87;;
5730;SDS011;2890;51.950;7.668;2023-11-19T08:29:45;42.60;;;7.23;;
5730;SDS011;2890;51.950;7.668;2023-11-19T08:32:12;37.73;;;6.20;;
5730;SDS011;2890;51.950;7.668;2023-11-19T08:34:38;28.40;;;6.37;;
5730;SDS011;2890;51.950;7.668;2023-11-19T08:37:05;35.63;;;6.83;;
5730;SDS011;2890;51.950;7.668;2023-11-19T08:39:31;34.17;;;7.80;;
5730;SDS011;2890;51.950;7.668;2023-11-19T08:41:57;29.80;;;5.33;;
5730;SDS011;2890;51.950;7.668;2023-11-19T08:44:23;38.83;;;6.77;;
5730;SDS011;2890;51.950;7.668;2023-11-19T08:46:51;35.17;;;6.87;;
5730;SDS011;2890;51.950;7.668;2023-11-19T08:49:17;30.80;;;7.13;;
5730;SDS011;2890;51.950;7.668;2023-11-19T08:51:44;42.17;;;6.93;;
5730;SDS011;2890;51.950;7.668;2023-11-19T08:54:10;31.80;;;6.63;;
5730;SDS011;2890;51.950;7.668;2023-11-19T08:56:37;28.23;;;6.87;;
5730;SDS011;2890;51.950;7.668;2023-11-19T08:59:04;28.67;;;6.10;;
5730;SDS011;2890;51.950;7.668;2023-11-19T09:01:30;35.63;;;8.10;;
5730;SDS011;2890;51.950;7.668;2023-11-19T09:03:58;31.77;;;7.00;;
5730;SDS011;2890;51.950;7.668;2023-11-19T09:06:24;43.07;;;7.60;;
5730;SDS011;2890;51.950;7.668;2023-11-19T09:08:50;34.87;;;6.63;;
5730;SDS011;2890;51.950;7.668;2023-11-19T09:11:17;39.43;;;7.20;;
5730;SDS011;2890;51.950;7.668;2023-11-19T09:13:43;36.57;;;6.57;;
5730;SDS011;2890;51.950;7.668;2023-11-19T09:16:11;39.23;;;7.23;;
5730;SDS011;2890;51.950;7.668;2023-11-19T09:18:37;40.47;;;6.93;;
5730;SDS011;2890;51.950;7.668;2023-11-19T09:21:05;33.30;;;6.43;;
5730;SDS011;2890;51.950;7.668;2023-11-19T09:23:32;32.33;;;7.27;;
5730;SDS011;2890;51.950;7.668;2023-11-19T09:26:04;37.80;;;6.87;;
5730;SDS011;2890;51.950;7.668;2023-11-19T09:28:30;31.03;;;5.97;;
5730;SDS011;2890;51.950;7.668;2023-11-19T09:30:57;39.10;;;6.90;;
5730;SDS011;2890;51.950;7.668;2023-11-19T09:33:24;36.30;;;7.40;;
5730;SDS011;2890;51.950;7.668;2023-11-19T09:35:51;33.43;;;7.03;;
5730;SDS011;2890;51.950;7.668;2023-11-19T09:38:19;39.83;;;7.57;;
5730;SDS011;2890;51.950;7.668;2023-11-19T09:40:47;33.10;;;6.83;;
5730;SDS011;2890;51.950;7.668;2023-11-19T09:43:14;40.10;;;6.30;;
5730;SDS011;2890;51.950;7.668;2023-11-19T09:45:43;34.83;;;7.50;;
5730;SDS011;2890;51.950;7.668;2023-11-19T09:48:12;40.33;;;7.37;;
5730;SDS011;2890;51.950;7.668;2023-11-19T09:50:39;35.27;;;6.13;;
5730;SDS011;2890;51.950;7.668;2023-11-19T09:53:06;31.97;;;6.37;;
5730;SDS011;2890;51.950;7.668;2023-11-19T09:55:33;47.87;;;7.70;;
5730;SDS011;2890;51.950;7.668;2023-11-19T09:58:02;31.00;;;6.53;;
5730;SDS011;2890;51.950;7.668;2023-11-19T10:00:28;31.83;;;6.23;;
5730;SDS011;2890;51.950;7.668;2023-11-19T10:02:58;39.40;;;7.27;;
5730;SDS011;2890;51.950;7.668;2023-11-19T10:05:25;32.30;;;7.30;;
5730;SDS011;2890;51.950;7.668;2023-11-19T10:07:52;39.13;;;6.23;;
5730;SDS011;2890;51.950;7.668;2023-11-19T10:10:20;33.17;;;6.10;;
5730;SDS011;2890;51.950;7.668;2023-11-19T10:12:50;33.23;;;6.70;;
5730;SDS011;2890;51.950;7.668;2023-11-19T10:15:17;26.67;;;5.23;;
5730;SDS011;2890;51.950;7.668;2023-11-19T10:17:46;25.53;;;6.00;;
5730;SDS011;2890;51.950;7.668;2023-11-19T10:20:12;32.13;;;5.80;;
5730;SDS011;2890;51.950;7.668;2023-11-19T10:22:38;39.20;;;6.00;;
5730;SDS011;2890;51.950;7.668;2023-11-19T10:25:05;42.57;;;6.30;;
5730;SDS011;2890;51.950;7.668;2023-11-19T10:27:33;31.80;;;5.70;;
5730;SDS011;2890;51.950;7.668;2023-11-19T10:30:01;32.53;;;6.80;;
5730;SDS011;2890;51.950;7.668;2023-11-19T10:32:29;31.20;;;6.07;;
5730;SDS011;2890;51.950;7.668;2023-11-19T10:35:04;32.83;;;6.63;;
5730;SDS011;2890;51.950;7.668;2023-11-19T10:37:31;27.63;;;6.40;;
5730;SDS011;2890;51.950;7.668;2023-11-19T10:40:00;31.27;;;6.87;;
5730;SDS011;2890;51.950;7.668;2023-11-19T10:42:26;30.67;;;6.07;;
5730;SDS011;2890;51.950;7.668;2023-11-19T10:44:53;29.30;;;6.07;;
5730;SDS011;2890;51.950;7.668;2023-11-19T10:47:20;37.00;;;6.33;;
5730;SDS011;2890;51.950;7.668;2023-11-19T10:49:48;29.20;;;6.20;;
5730;SDS011;2890;51.950;7.668;2023-11-19T10:52:17;36.40;;;6.20;;
5730;SDS011;2890;51.950;7.668;2023-11-19T10:54:44;30.97;;;6.67;;
5730;SDS011;2890;51.950;7.668;2023-11-19T10:57:12;28.43;;;5.53;;
5730;SDS011;2890;51.950;7.668;2023-11-19T10:59:40;33.63;;;7.47;;
5730;SDS011;2890;51.950;7.668;2023-11-19T11:02:09;28.93;;;6.10;;
5730;SDS011;2890;51.950;7.668;2023-11-19T11:04:39;31.80;;;7.77;;
5730;SDS011;2890;51.950;7.668;2023-11-19T11:07:07;35.73;;;7.30;;
5730;SDS011;2890;51.950;7.668;2023-11-19T11:09:33;33.73;;;6.63;;
5730;SDS011;2890;51.950;7.668;2023-11-19T11:11:59;29.37;;;6.60;;
5730;SDS011;2890;51.950;7.668;2023-11-19T11:14:28;38.80;;;6.60;;
5730;SDS011;2890;51.950;7.668;2023-11-19T11:16:55;21.80;;;5.57;;
5730;SDS011;2890;51.950;7.668;2023-11-19T11:19:22;35.70;;;6.07;;
5730;SDS011;2890;51.950;7.668;2023-11-19T11:21:50;27.13;;;6.37;;
5730;SDS011;2890;51.950;7.668;2023-11-19T11:24:27;27.47;;;5.90;;
5730;SDS011;2890;51.950;7.668;2023-11-19T11:27:01;25.93;;;6.13;;
5730;SDS011;2890;51.950;7.668;2023-11-19T11:29:31;29.70;;;6.27;;
5730;SDS011;2890;51.950;7.668;2023-11-19T11:32:04;27.20;;;5.80;;
5730;SDS011;2890;51.950;7.668;2023-11-19T11:34:58;34.07;;;7.10;;
5730;SDS011;2890;51.950;7.668;2023-11-19T11:37:32;27.00;;;6.50;;
5730;SDS011;2890;51.950;7.668;2023-11-19T11:39:58;34.07;;;6.43;;
5730;SDS011;2890;51.950;7.668;2023-11-19T11:42:35;30.03;;;6.50;;
5730;SDS011;2890;51.950;7.668;2023-11-19T11:45:02;31.80;;;7.00;;
5730;SDS011;2890;51.950;7.668;2023-11-19T11:50:15;35.50;;;5.60;;
5730;SDS011;2890;51.950;7.668;2023-11-19T11:55:26;33.63;;;6.20;;
5730;SDS011;2890;51.950;7.668;2023-11-19T11:57:52;33.97;;;6.10;;
5730;SDS011;2890;51.950;7.668;2023-11-19T12:00:21;30.93;;;5.97;;
5730;SDS011;2890;51.950;7.668;2023-11-19T12:02:48;29.83;;;6.80;;
5730;SDS011;2890;51.950;7.668;2023-11-19T12:05:15;27.03;;;5.70;;
5730;SDS011;2890;51.950;7.668;2023-11-19T12:07:44;24.67;;;4.90;;
5730;SDS011;2890;51.950;7.668;2023-11-19T12:10:20;28.27;;;6.00;;
5730;SDS011;2890;51.950;7.668;2023-11-19T12:12:52;30.37;;;6.20;;
5730;SDS011;2890;51.950;7.668;2023-11-19T12:15:19;36.60;;;6.57;;
5730;SDS011;2890;51.950;7.668;2023-11-19T12:17:50;32.53;;;5.43;;
5730;SDS011;2890;51.950;7.668;2023-11-19T12:20:16;29.70;;;5.87;;
5730;SDS011;2890;51.950;7.668;2023-11-19T12:22:43;27.30;;;5.60;;
5730;SDS011;2890;51.950;7.668;2023-11-19T12:25:10;31.27;;;5.60;;
5730;SDS011;2890;51.950;7.668;2023-11-19T12:27:37;31.67;;;5.97;;
5730;SDS011;2890;51.950;7.668;2023-11-19T12:30:07;27.13;;;6.17;;
5730;SDS011;2890;51.950;7.668;2023-11-19T12:32:39;29.33;;;6.03;;
5730;SDS011;2890;51.950;7.668;2023-11-19T12:35:06;22.33;;;4.80;;
5730;SDS011;2890;51.950;7.668;2023-11-19T12:37:38;24.07;;;5.10;;
5730;SDS011;2890;51.950;7.668;2023-11-19T12:40:10;25.30;;;5.60;;
5730;SDS011;2890;51.950;7.668;2023-11-19T12:42:38;23.00;;;5.37;;
5730;SDS011;2890;51.950;7.668;2023-11-19T12:45:04;23.13;;;5.60;;
5730;SDS011;2890;51.950;7.668;2023-11-19T12:47:32;26.43;;;5.57;;
5730;SDS011;2890;51.950;7.668;2023-11-19T12:49:59;28.93;;;6.00;;
5730;SDS011;2890;51.950;7.668;2023-11-19T12:52:24;22.17;;;4.83;;
5730;SDS011;2890;51.950;7.668;2023-11-19T12:54:51;29.33;;;5.27;;
5730;SDS011;2890;51.950;7.668;2023-11-19T12:57:17;29.93;;;5.87;;
5730;SDS011;2890;51.950;7.668;2023-11-19T12:59:54;21.93;;;5.00;;
5730;SDS011;2890;51.950;7.668;2023-11-19T13:02:20;27.73;;;5.53;;
5730;SDS011;2890;51.950;7.668;2023-11-19T13:04:48;23.87;;;5.13;;
5730;SDS011;2890;51.950;7.668;2023-11-19T13:07:19;23.13;;;5.30;;
5730;SDS011;2890;51.950;7.668;2023-11-19T13:09:46;25.20;;;5.33;;
5730;SDS011;2890;51.950;7.668;2023-11-19T13:12:13;19.23;;;4.70;;
5730;SDS011;2890;51.950;7.668;2023-11-19T13:14:40;27.87;;;5.17;;
5730;SDS011;2890;51.950;7.668;2023-11-19T13:17:07;18.90;;;4.50;;
5730;SDS011;2890;51.950;7.668;2023-11-19T13:19:33;25.30;;;4.53;;
5730;SDS011;2890;51.950;7.668;2023-11-19T13:22:01;21.20;;;4.70;;
5730;SDS011;2890;51.950;7.668;2023-11-19T13:24:27;21.93;;;5.00;;
5730;SDS011;2890;51.950;7.668;2023-11-19T13:26:54;26.20;;;5.50;;
5730;SDS011;2890;51.950;7.668;2023-11-19T13:29:21;21.30;;;5.10;;
5730;SDS011;2890;51.950;7.668;2023-11-19T13:31:47;13.10;;;3.83;;
5730;SDS011;2890;51.950;7.668;2023-11-19T13:34:13;21.70;;;4.40;;
5730;SDS011;2890;51.950;7.668;2023-11-19T13:36:39;18.27;;;4.70;;
5730;SDS011;2890;51.950;7.668;2023-11-19T13:39:08;24.37;;;5.00;;
5730;SDS011;2890;51.950;7.668;2023-11-19T13:41:34;26.90;;;5.20;;
5730;SDS011;2890;51.950;7.668;2023-11-19T13:44:00;21.03;;;5.27;;
5730;SDS011;2890;51.950;7.668;2023-11-19T13:46:26;17.40;;;4.17;;
5730;SDS011;2890;51.950;7.668;2023-11-19T13:48:53;19.17;;;4.53;;
5730;SDS011;2890;51.950;7.668;2023-11-19T13:51:19;23.67;;;4.77;;
5730;SDS011;2890;51.950;7.668;2023-11-19T13:53:46;23.57;;;5.03;;
5730;SDS011;2890;51.950;7.668;2023-11-19T13:56:13;19.53;;;3.73;;
5730;SDS011;2890;51.950;7.668;2023-11-19T13:58:40;23.77;;;4.67;;
5730;SDS011;2890;51.950;7.668;2023-11-19T14:01:06;14.63;;;4.00;;
5730;SDS011;2890;51.950;7.668;2023-11-19T14:03:33;17.73;;;4.47;;
5730;SDS011;2890;51.950;7.668;2023-11-19T14:05:59;21.40;;;4.77;;
5730;SDS011;2890;51.950;7.668;2023-11-19T14:08:25;28.00;;;5.07;;
5730;SDS011;2890;51.950;7.668;2023-11-19T14:10:52;21.37;;;3.97;;
5730;SDS011;2890;51.950;7.668;2023-11-19T14:13:21;22.73;;;4.37;;
5730;SDS011;2890;51.950;7.668;2023-11-19T14:15:48;13.27;;;3.87;;
5730;SDS011;2890;51.950;7.668;2023-11-19T14:18:15;20.53;;;4.23;;
5730;SDS011;2890;51.950;7.668;2023-11-19T14:20:41;23.47;;;4.00;;
5730;SDS011;2890;51.950;7.668;2023-11-19T14:23:07;22.17;;;4.13;;
5730;SDS011;2890;51.950;7.668;2023-11-19T14:25:34;16.90;;;4.23;;
5730;SDS011;2890;51.950;7.668;2023-11-19T14:28:00;18.87;;;4.17;;
5730;SDS011;2890;51.950;7.668;2023-11-19T14:30:28;16.90;;;3.90;;
5730;SDS011;2890;51.950;7.668;2023-11-19T14:32:54;23.90;;;5.03;;
5730;SDS011;2890;51.950;7.668;2023-11-19T14:35:20;21.17;;;4.53;;
5730;SDS011;2890;51.950;7.668;2023-11-19T14:37:47;21.97;;;4.37;;
5730;SDS011;2890;51.950;7.668;2023-11-19T14:40:14;20.07;;;4.83;;
5730;SDS011;2890;51.950;7.668;2023-11-19T14:42:40;22.60;;;4.17;;
5730;SDS011;2890;51.950;7.668;2023-11-19T14:45:07;16.73;;;4.80;;
5730;SDS011;2890;51.950;7.668;2023-11-19T14:47:38;18.93;;;3.57;;
5730;SDS011;2890;51.950;7.668;2023-11-19T14:50:05;16.90;;;3.90;;
5730;SDS011;2890;51.950;7.668;2023-11-19T14:52:32;18.17;;;4.70;;
5730;SDS011;2890;51.950;7.668;2023-11-19T14:54:58;22.10;;;5.00;;
5730;SDS011;2890;51.950;7.668;2023-11-19T14:57:24;20.50;;;4.60;;
5730;SDS011;2890;51.950;7.668;2023-11-19T14:59:51;17.17;;;4.13;;
5730;SDS011;2890;51.950;7.668;2023-11-19T15:02:18;19.73;;;4.00;;
5730;SDS011;2890;51.950;7.668;2023-11-19T15:04:45;15.00;;;3.73;;